Terminal Aerodrome Forecast
Issued by NWS Norman, OK

Home | Current Version | Previous Version | Text Only | Print | Product List | Glossary On
Versions: 1 2 3 4 5 6 7 8 9 10 11 12 13 14 15
000
FTUS44 KOUN 271120
TAFOKC
TAF
KOKC 271120Z 2712/2812 16008KT P6SM SCT250
     FM271700 16015G22KT P6SM BKN100
     FM280500 17008KT P6SM SCT100=

USA.gov is the U.S. government's official web portal to all federal, state and local government web resources and services.